地図

経路データ

SID SEASON NUMBER BASIN SUBBASIN NAME ISO_TIME NATURE LAT LON WMO_WIND WMO_PRES WMO_AGENCY TRACK_TYPE DIST2LAND LANDFALL IFLAG USA_AGENCY USA_ATCF_ID USA_LAT USA_LON USA_RECORD USA_STATUS USA_WIND USA_PRES USA_SSHS USA_R34_NE USA_R34_SE USA_R34_SW USA_R34_NW USA_R50_NE USA_R50_SE USA_R50_SW USA_R50_NW USA_R64_NE USA_R64_SE USA_R64_SW USA_R64_NW USA_POCI USA_ROCI USA_RMW USA_EYE TOKYO_LAT TOKYO_LON TOKYO_GRADE TOKYO_WIND TOKYO_PRES TOKYO_R50_DIR TOKYO_R50_LONG TOKYO_R50_SHORT TOKYO_R30_DIR TOKYO_R30_LONG TOKYO_R30_SHORT TOKYO_LAND CMA_LAT CMA_LON CMA_CAT CMA_WIND CMA_PRES HKO_LAT HKO_LON HKO_CAT HKO_WIND HKO_PRES NEWDELHI_LAT NEWDELHI_LON NEWDELHI_GRADE NEWDELHI_WIND NEWDELHI_PRES NEWDELHI_CI NEWDELHI_DP NEWDELHI_POCI REUNION_LAT REUNION_LON REUNION_TYPE REUNION_WIND REUNION_PRES REUNION_TNUM REUNION_CI REUNION_RMW REUNION_R34_NE REUNION_R34_SE REUNION_R34_SW REUNION_R34_NW REUNION_R50_NE REUNION_R50_SE REUNION_R50_SW REUNION_R50_NW REUNION_R64_NE REUNION_R64_SE REUNION_R64_SW REUNION_R64_NW BOM_LAT BOM_LON BOM_TYPE BOM_WIND BOM_PRES BOM_TNUM BOM_CI BOM_RMW BOM_R34_NE BOM_R34_SE BOM_R34_SW BOM_R34_NW BOM_R50_NE BOM_R50_SE BOM_R50_SW BOM_R50_NW BOM_R64_NE BOM_R64_SE BOM_R64_SW BOM_R64_NW BOM_ROCI BOM_POCI BOM_EYE BOM_POS_METHOD BOM_PRES_METHOD NADI_LAT NADI_LON NADI_CAT NADI_WIND NADI_PRES WELLINGTON_LAT WELLINGTON_LON WELLINGTON_WIND WELLINGTON_PRES DS824_LAT DS824_LON DS824_STAGE DS824_WIND DS824_PRES TD9636_LAT TD9636_LON TD9636_STAGE TD9636_WIND TD9636_PRES TD9635_LAT TD9635_LON TD9635_WIND TD9635_PRES TD9635_ROCI NEUMANN_LAT NEUMANN_LON NEUMANN_CLASS NEUMANN_WIND NEUMANN_PRES MLC_LAT MLC_LON MLC_CLASS MLC_WIND MLC_PRES USA_GUST BOM_GUST BOM_GUST_PER REUNION_GUST REUNION_GUST_PER USA_SEAHGT USA_SEARAD_NE USA_SEARAD_SE USA_SEARAD_SW USA_SEARAD_NW STORM_SPEED STORM_DIR
1986250N11308 1986 90 NA NA DANIELLE 1986-09-07 06:00:00 TS 10.5000 -52.0000 25 1008 hurdat_atl main 569 558 O_____________ hurdat_atl AL081986 10.5000 -52.0000 TD 25 1008 -1 21 286
1986250N11308 1986 90 NA NA DANIELLE 1986-09-07 09:00:00 TS 10.7907 -53.0168 main 564 559 P_____________ AL081986 10.7907 -53.0168 TD 27 1006 -1 20 284
1986250N11308 1986 90 NA NA DANIELLE 1986-09-07 12:00:00 TS 11.0000 -54.0000 30 1005 hurdat_atl main 571 568 O_____________ hurdat_atl AL081986 11.0000 -54.0000 TD 30 1005 -1 19 279
1986250N11308 1986 90 NA NA DANIELLE 1986-09-07 15:00:00 TS 11.0922 -54.9230 main 568 501 P_____________ AL081986 11.0922 -54.9230 TD 32 1004 -1 18 276
1986250N11308 1986 90 NA NA DANIELLE 1986-09-07 18:00:00 TS 11.2000 -55.8000 35 1003 hurdat_atl main 501 469 O_____________ hurdat_atl AL081986 11.2000 -55.8000 TS 35 1003 0 17 283
1986250N11308 1986 90 NA NA DANIELLE 1986-09-07 21:00:00 TS 11.4846 -56.6423 main 472 401 P_____________ AL081986 11.4846 -56.6423 TS 40 1001 0 18 290
1986250N11308 1986 90 NA NA DANIELLE 1986-09-08 00:00:00 TS 11.8000 -57.5000 45 1000 hurdat_atl main 401 318 O_____________ hurdat_atl AL081986 11.8000 -57.5000 TS 45 1000 0 18 287
1986250N11308 1986 90 NA NA DANIELLE 1986-09-08 03:00:00 TS 12.0224 -58.4427 main 318 250 P_____________ AL081986 12.0224 -58.4427 TS 47 1000 0 19 282
1986250N11308 1986 90 NA NA DANIELLE 1986-09-08 06:00:00 TS 12.2000 -59.4000 50 1000 hurdat_atl main 242 194 O_____________ hurdat_atl AL081986 12.2000 -59.4000 TS 50 1000 0 19 280
1986250N11308 1986 90 NA CS DANIELLE 1986-09-08 09:00:00 TS 12.3421 -60.3078 main 194 190 P_____________ AL081986 12.3421 -60.3078 TS 50 1001 0 18 280
1986250N11308 1986 90 NA CS DANIELLE 1986-09-08 12:00:00 TS 12.5000 -61.2000 50 1002 hurdat_atl main 201 201 O_____________ hurdat_atl AL081986 12.5000 -61.2000 TS 50 1002 0 18 283
1986250N11308 1986 90 NA CS DANIELLE 1986-09-08 15:00:00 TS 12.7422 -62.0999 main 224 224 P_____________ AL081986 12.7422 -62.0999 TS 50 1002 0 18 286
1986250N11308 1986 90 NA CS DANIELLE 1986-09-08 18:00:00 TS 13.0000 -63.0000 50 1002 hurdat_atl main 257 257 O_____________ hurdat_atl AL081986 13.0000 -63.0000 TS 50 1002 0 18 285
1986250N11308 1986 90 NA CS DANIELLE 1986-09-08 21:00:00 TS 13.2073 -63.9077 main 291 291 P_____________ AL081986 13.2073 -63.9077 TS 47 1003 0 18 283
1986250N11308 1986 90 NA CS DANIELLE 1986-09-09 00:00:00 TS 13.4000 -64.8000 45 1004 hurdat_atl main 320 320 O_____________ hurdat_atl AL081986 13.4000 -64.8000 TS 45 1004 0 17 284
1986250N11308 1986 90 NA CS DANIELLE 1986-09-09 03:00:00 TS 13.6144 -65.6350 main 338 336 P_____________ AL081986 13.6144 -65.6351 TS 42 1005 0 17 284
1986250N11308 1986 90 NA CS DANIELLE 1986-09-09 06:00:00 TS 13.8000 -66.5000 40 1006 hurdat_atl main 356 318 O_____________ hurdat_atl AL081986 13.8000 -66.5000 TS 40 1006 0 18 279
1986250N11308 1986 90 NA CS DANIELLE 1986-09-09 09:00:00 TS 13.8924 -67.4781 main 313 267 P_____________ AL081986 13.8924 -67.4781 TS 37 1007 0 20 276
1986250N11308 1986 90 NA CS DANIELLE 1986-09-09 12:00:00 TS 14.0000 -68.5000 35 1008 hurdat_atl main 261 240 O_____________ hurdat_atl AL081986 14.0000 -68.5000 TS 35 1008 0 20 280
1986250N11308 1986 90 NA CS DANIELLE 1986-09-09 15:00:00 TS 14.2421 -69.4997 main 239 239 P_____________ AL081986 14.2421 -69.4997 TS 32 1009 -1 20 284
1986250N11308 1986 90 NA CS DANIELLE 1986-09-09 18:00:00 TS 14.5000 -70.5000 30 1010 hurdat_atl main 258 248 O_____________ hurdat_atl AL081986 14.5000 -70.5000 TD 30 1010 -1 19 283
1986250N11308 1986 90 NA CS DANIELLE 1986-09-09 21:00:00 TS 14.6784 -71.4253 main 257 257 P_____________ AL081986 14.6784 -71.4253 TD 30 1011 -1 20 279
1986250N11308 1986 90 NA CS DANIELLE 1986-09-10 00:00:00 TS 14.8000 -72.5000 30 1012 hurdat_atl main 282 282 O_____________ hurdat_atl AL081986 14.8000 -72.5000 TD 30 1012 -1 24 275
1986250N11308 1986 90 NA CS DANIELLE 1986-09-10 03:00:00 TS 14.8803 -73.9251 main 346 346 P_____________ AL081986 14.8803 -73.9251 TD 30 1012 -1 29 272
1986250N11308 1986 90 NA CS DANIELLE 1986-09-10 06:00:00 TS 14.9000 -75.5000 30 1012 hurdat_atl main 343 315 O_____________ hurdat_atl AL081986 14.9000 -75.5000 TD 30 1012 -1 30 270
1986250N11308 1986 90 NA CS DANIELLE 1986-09-10 09:00:00 TS 14.8662 -77.0250 main 314 313 P_____________ AL081986 14.8662 -77.0250 TD 30 1012 -1 29 268
1986250N11308 1986 90 NA CS DANIELLE 1986-09-10 12:00:00 TS 14.8000 -78.5000 30 1013 hurdat_atl main 353 O_____________ hurdat_atl AL081986 14.8000 -78.5000 TD 30 1013 -1 29 267

IBTrACS Databaseについて

本データベースは、米国NOAAが公開する1842年以降の世界の熱帯低気圧のベストトラックデータアーカイブInternational Best Track Archive for Climate Stewardship (IBTrACS)を、ウェブで閲覧しやすい形式に変換したものです。

最終更新日:2021-12-06